Time;durP1;ratioP1;P1;durP2;ratioP2;P2;SDS_P1;SDS_P2;PMS_P1;PMS_P2;Temp;Humidity;BMP_temperature;BMP_pressure;BME280_temperature;BME280_humidity;BME280_pressure;Samples;Min_cycle;Max_cycle;Signal;HPM_P1;HPM_P2
2021/04/20 00:03:43;;;;;;;71.80;38.53;;;;;;;5.73;90.31;98853.64;4182777;84;21204;-86
2021/04/20 00:09:45;;;;;;;59.08;35.58;;;;;;;5.72;90.37;98843.92;4194608;84;21208;-86
2021/04/20 00:15:47;;;;;;;68.52;38.25;;;;;;;5.78;90.26;98846.61;4191187;83;21168;-86
2021/04/20 00:21:48;;;;;;;69.85;35.03;;;;;;;5.85;90.55;98846.84;4176824;84;21347;-86
2021/04/20 00:27:51;;;;;;;60.28;33.35;;;;;;;5.80;90.36;98838.11;4174769;83;21196;-86
2021/04/20 00:33:52;;;;;;;68.65;34.05;;;;;;;5.83;90.45;98846.95;4189291;84;21216;-88
2021/04/20 00:39:54;;;;;;;68.50;34.63;;;;;;;5.88;90.67;98843.99;4199676;83;21369;-86
2021/04/20 00:45:55;;;;;;;67.40;34.85;;;;;;;5.96;90.64;98843.84;4157798;83;21571;-86
2021/04/20 00:51:57;;;;;;;92.22;40.95;;;;;;;5.89;90.62;98840.92;4156289;84;21776;-86
2021/04/20 00:57:59;;;;;;;92.55;42.98;;;;;;;5.92;90.94;98840.81;4154745;84;21190;-86
2021/04/20 01:04:00;;;;;;;75.10;36.83;;;;;;;5.98;91.08;98830.68;4157553;83;21156;-86
2021/04/20 01:10:04;;;;;;;81.17;37.15;;;;;;;6.05;90.72;98825.45;4151132;84;21132;-86
2021/04/20 01:16:06;;;;;;;81.35;37.93;;;;;;;5.92;90.66;98829.95;4160861;83;21189;-86
2021/04/20 01:22:08;;;;;;;87.92;39.75;;;;;;;5.90;91.12;98823.48;4154165;84;21161;-86
2021/04/20 01:28:10;;;;;;;84.40;39.25;;;;;;;6.02;91.37;98822.07;4156526;83;21643;-86
2021/04/20 01:34:13;;;;;;;92.12;40.90;;;;;;;6.08;91.27;98821.23;4152260;85;21169;-86
2021/04/20 01:40:15;;;;;;;90.17;42.88;;;;;;;6.18;91.51;98829.67;4158451;84;21484;-86
2021/04/20 01:46:17;;;;;;;92.90;43.60;;;;;;;6.19;91.36;98819.57;4164652;83;21740;-86
2021/04/20 01:52:18;;;;;;;81.53;40.98;;;;;;;6.28;91.40;98824.27;4178834;84;21334;-86
2021/04/20 01:58:20;;;;;;;83.87;40.20;;;;;;;6.29;91.17;98832.66;4174487;83;21181;-86
2021/04/20 02:04:21;;;;;;;86.12;40.67;;;;;;;6.32;91.24;98830.03;4168712;83;21181;-86
2021/04/20 02:10:23;;;;;;;87.10;40.15;;;;;;;6.37;91.19;98831.11;4163589;84;21188;-86
2021/04/20 02:16:26;;;;;;;82.25;38.65;;;;;;;6.38;91.07;98828.63;4163736;83;21208;-86
2021/04/20 02:22:27;;;;;;;96.00;42.10;;;;;;;6.43;91.04;98828.13;4174820;83;21322;-87
2021/04/20 02:28:32;;;;;;;85.95;37.50;;;;;;;6.41;91.17;98823.05;4173137;84;21733;-86
2021/04/20 02:34:33;;;;;;;84.37;38.08;;;;;;;6.39;91.15;98822.03;4177435;83;22019;-86
2021/04/20 02:40:36;;;;;;;71.47;35.88;;;;;;;6.40;91.14;98821.48;4171199;83;21624;-86
2021/04/20 02:46:40;;;;;;;77.25;36.58;;;;;;;6.46;90.99;98820.06;4173640;83;21213;-86
2021/04/20 02:52:43;;;;;;;87.02;37.65;;;;;;;6.40;91.01;98822.24;4176492;83;21892;-86
2021/04/20 02:58:45;;;;;;;77.40;37.42;;;;;;;6.39;90.93;98824.75;4171569;83;21156;-86
2021/04/20 03:04:51;;;;;;;81.10;37.38;;;;;;;6.39;90.85;98827.47;4160960;83;21236;-86
2021/04/20 03:10:58;;;;;;;89.58;38.60;;;;;;;6.35;91.02;98816.30;4157338;80;27543;-85
2021/04/20 03:16:59;;;;;;;79.00;36.17;;;;;;;6.37;91.04;98814.80;4133784;85;21640;-86
2021/04/20 03:23:03;;;;;;;78.95;36.03;;;;;;;6.39;90.98;98813.08;4130821;84;21786;-86
2021/04/20 03:29:08;;;;;;;81.15;37.38;;;;;;;6.42;90.90;98808.33;4134277;84;21219;-86
2021/04/20 03:35:33;;;;;;;81.37;39.08;;;;;;;6.45;90.90;98810.91;4133910;85;21175;-88
2021/04/20 03:41:52;;;;;;;76.97;35.15;;;;;;;6.44;90.84;98815.54;4130266;85;21340;-86
2021/04/20 03:47:58;;;;;;;70.95;35.25;;;;;;;6.40;90.76;98815.45;4133983;84;21198;-87
2021/04/20 03:54:06;;;;;;;87.40;37.73;;;;;;;6.42;90.74;98811.05;4137032;85;22616;-86
2021/04/20 04:00:09;;;;;;;76.20;37.95;;;;;;;6.43;90.75;98809.09;4136871;85;21181;-87
2021/04/20 04:06:12;;;;;;;82.65;41.85;;;;;;;6.39;90.69;98800.84;3987142;87;21370;-86
2021/04/20 04:12:16;;;;;;;83.85;38.75;;;;;;;6.16;90.75;98804.77;4012198;87;21571;-87
2021/04/20 04:18:20;;;;;;;85.42;43.68;;;;;;;6.20;90.94;98807.58;4022364;86;21811;-86
2021/04/20 04:24:23;;;;;;;92.00;44.08;;;;;;;6.26;91.32;98803.45;4005274;86;21260;-86
2021/04/20 04:30:26;;;;;;;94.62;45.90;;;;;;;6.30;91.33;98798.32;4004429;87;21851;-86
2021/04/20 04:36:28;;;;;;;88.07;42.98;;;;;;;6.32;91.28;98804.20;3999889;87;21248;-87
2021/04/20 04:42:32;;;;;;;92.78;46.23;;;;;;;6.34;90.96;98805.98;3985678;88;21212;-86
2021/04/20 04:48:35;;;;;;;103.87;46.88;;;;;;;6.34;91.41;98807.34;4024457;88;21236;-85
2021/04/20 04:54:37;;;;;;;92.95;45.10;;;;;;;6.47;91.56;98813.48;4060790;87;21148;-86
2021/04/20 05:00:40;;;;;;;85.92;41.85;;;;;;;6.54;91.38;98808.22;4008682;89;21230;-87
2021/04/20 05:06:47;;;;;;;88.05;42.27;;;;;;;6.56;91.38;98811.95;4019975;88;21161;-87
2021/04/20 05:12:50;;;;;;;99.67;46.90;;;;;;;6.68;91.48;98809.11;3969013;89;21170;-86
2021/04/20 05:18:52;;;;;;;105.92;46.65;;;;;;;6.67;91.58;98812.98;4015577;89;21176;-86
2021/04/20 05:24:53;;;;;;;95.38;42.80;;;;;;;6.81;91.75;98814.11;4026438;88;21714;-86
2021/04/20 05:30:56;;;;;;;109.12;50.30;;;;;;;6.87;91.41;98819.50;4063899;86;21164;-88
2021/04/20 05:37:37;;;;;;;107.15;51.75;;;;;;;6.92;91.86;98820.55;4040764;87;21369;-87
2021/04/20 05:43:39;;;;;;;101.00;47.08;;;;;;;7.10;92.01;98823.67;4040339;87;21191;-87
2021/04/20 05:49:41;;;;;;;94.30;42.73;;;;;;;7.27;91.90;98828.15;4019169;87;21314;-87
2021/04/20 05:55:42;;;;;;;89.32;40.10;;;;;;;7.41;92.14;98836.62;4137060;85;21196;-87
2021/04/20 06:01:45;;;;;;;80.85;35.65;;;;;;;7.52;92.02;98830.81;4139218;86;21194;-87
2021/04/20 06:07:51;;;;;;;77.65;33.53;;;;;;;7.65;91.82;98825.45;4140892;85;21161;-88
2021/04/20 06:13:55;;;;;;;80.53;38.50;;;;;;;7.71;91.36;98834.10;3982029;89;21328;-87
2021/04/20 06:19:57;;;;;;;78.70;34.78;;;;;;;7.78;91.46;98833.66;4004576;88;21812;-87
2021/04/20 06:26:27;;;;;;;106.78;48.55;;;;;;;7.88;91.31;98829.56;4131529;85;21155;-88
2021/04/20 06:32:28;;;;;;;87.82;42.98;;;;;;;7.97;91.40;98824.10;4137368;85;21285;-88
2021/04/20 06:38:30;;;;;;;90.85;43.68;;;;;;;8.05;91.17;98826.97;4124782;85;21570;-87
2021/04/20 06:44:51;;;;;;;83.78;40.45;;;;;;;8.00;91.13;98828.06;4136796;84;21187;-87
2021/04/20 06:50:57;;;;;;;79.03;40.45;;;;;;;8.06;91.16;98836.16;4035835;87;21179;-87
2021/04/20 06:57:13;;;;;;;72.37;33.53;;;;;;;8.05;90.91;98831.83;4109977;86;21343;-87
2021/04/20 07:03:31;;;;;;;85.40;41.35;;;;;;;8.11;91.06;98832.34;4105515;85;21308;-88
2021/04/20 07:09:36;;;;;;;86.95;40.20;;;;;;;8.28;91.08;98834.62;4030295;87;21378;-87
2021/04/20 07:15:42;;;;;;;89.50;43.78;;;;;;;8.48;90.79;98838.86;4108427;85;21194;-88
2021/04/20 07:21:52;;;;;;;83.07;43.08;;;;;;;8.70;90.73;98836.69;4101445;85;21353;-88
2021/04/20 07:28:33;;;;;;;79.47;45.63;;;;;;;8.93;90.09;98831.39;4107817;85;21127;-88
2021/04/20 07:34:45;;;;;;;84.35;46.02;;;;;;;9.09;89.92;98836.13;4060418;84;23105;-88
2021/04/20 07:41:12;;;;;;;87.95;46.48;;;;;;;9.50;90.14;98831.03;4057096;87;21206;-88
2021/04/20 07:47:16;;;;;;;82.15;48.15;;;;;;;9.75;89.03;98838.73;4024772;87;21213;-87
2021/04/20 07:53:43;;;;;;;87.92;50.00;;;;;;;9.68;88.20;98835.33;4016398;87;21155;-88
2021/04/20 08:00:09;;;;;;;88.45;52.17;;;;;;;9.89;89.16;98838.89;3997992;88;21691;-88
2021/04/20 08:06:23;;;;;;;71.72;44.20;;;;;;;10.42;87.29;98826.56;4012332;88;21160;-88
2021/04/20 08:12:33;;;;;;;87.05;50.75;;;;;;;10.56;86.90;98829.42;4006522;88;21178;-88
2021/04/20 08:18:39;;;;;;;85.62;49.85;;;;;;;11.16;87.44;98827.92;3998041;88;21207;-89
2021/04/20 08:24:58;;;;;;;68.78;41.05;;;;;;;11.73;86.77;98824.91;3924638;89;21188;-89
2021/04/20 08:31:08;;;;;;;65.85;40.38;;;;;;;12.54;84.63;98823.88;4002315;88;21180;-88
2021/04/20 08:37:36;;;;;;;73.45;45.45;;;;;;;12.96;81.27;98819.55;4015465;88;21310;-89
2021/04/20 08:43:58;;;;;;;73.55;44.88;;;;;;;13.09;82.75;98817.39;3987484;88;21341;-88
2021/04/20 08:50:12;;;;;;;68.28;43.23;;;;;;;13.40;83.03;98815.19;3912927;89;21226;-87
2021/04/20 08:56:34;;;;;;;53.58;35.73;;;;;;;14.10;81.68;98816.83;3981120;89;21655;-88
2021/04/20 09:03:09;;;;;;;62.78;41.53;;;;;;;14.45;79.49;98818.02;4058895;86;54935;-88
2021/04/20 09:09:13;;;;;;;67.00;43.08;;;;;;;14.23;79.97;98813.80;4119519;86;21174;-88
2021/04/20 09:21:56;;;;;;;53.60;32.58;;;;;;;14.26;76.95;98806.73;4623758;76;22136;-89
2021/04/20 09:28:24;;;;;;;45.77;30.13;;;;;;;15.14;76.24;98793.77;4516188;79;21118;-89
2021/04/20 09:34:33;;;;;;;42.55;27.10;;;;;;;15.87;74.41;98783.08;4517459;79;21451;-89
2021/04/20 09:40:37;;;;;;;31.73;23.92;;;;;;;17.06;73.93;98784.58;4487249;78;21680;-88
2021/04/20 09:46:49;;;;;;;34.73;25.30;;;;;;;18.14;72.96;98778.03;4467757;80;21747;-88
2021/04/20 09:53:25;;;;;;;31.87;23.10;;;;;;;17.90;62.66;98773.22;4467940;80;21279;-89
2021/04/20 09:59:53;;;;;;;33.43;24.07;;;;;;;17.71;61.80;98770.49;4467403;80;21156;-88
2021/04/20 10:06:32;;;;;;;;;;;;;;;17.99;66.53;98761.57;4517940;79;21424;-88
2021/04/20 10:12:59;;;;;;;29.75;20.30;;;;;;;18.90;64.37;98755.83;4518844;79;20161;-88
2021/04/20 10:19:32;;;;;;;25.70;18.85;;;;;;;18.79;61.51;98747.80;4518767;77;21153;-89
2021/04/20 10:25:49;;;;;;;30.02;19.87;;;;;;;18.05;54.15;98753.71;4517991;79;21153;-88
2021/04/20 10:32:17;;;;;;;25.95;17.52;;;;;;;16.63;60.30;98758.89;4517727;79;21113;-87
2021/04/20 10:38:23;;;;;;;23.73;16.02;;;;;;;16.19;60.75;98764.69;4508852;77;21152;-89
2021/04/20 10:44:31;;;;;;;13.50;9.03;;;;;;;14.91;58.07;98768.80;4496365;78;21148;-89
2021/04/20 10:50:35;;;;;;;12.87;6.37;;;;;;;12.87;60.74;98782.09;4492339;79;22002;-88
2021/04/20 10:56:38;;;;;;;7.72;5.55;;;;;;;11.58;64.23;98788.38;4485738;79;21180;-88
2021/04/20 11:02:44;;;;;;;10.15;5.60;;;;;;;10.78;64.76;98799.11;4480843;78;21176;-88
2021/04/20 11:08:57;;;;;;;6.27;4.03;;;;;;;10.68;66.48;98788.85;4486362;78;21172;-88
2021/04/20 11:15:00;;;;;;;7.80;5.10;;;;;;;10.67;67.39;98757.18;4492588;78;21156;-87
2021/04/20 11:21:07;;;;;;;9.25;5.40;;;;;;;10.89;68.53;98752.62;4386222;81;21168;-87
2021/04/20 11:27:10;;;;;;;10.85;5.67;;;;;;;11.10;68.38;98743.16;4344870;81;21153;-87
2021/04/20 11:33:15;;;;;;;16.82;9.00;;;;;;;11.27;69.17;98738.91;4349498;81;21864;-87
2021/04/20 11:39:24;;;;;;;12.25;7.25;;;;;;;11.50;70.51;98731.96;4342838;81;21169;-89
2021/04/20 11:45:28;;;;;;;9.28;6.70;;;;;;;12.80;70.81;98728.53;4347633;81;21458;-88
2021/04/20 11:51:35;;;;;;;14.65;8.53;;;;;;;13.60;69.81;98731.03;4363587;80;21181;-88
2021/04/20 11:57:38;;;;;;;;;;;;;;;14.13;70.38;98733.44;4359314;81;21153;-88
2021/04/20 12:04:01;;;;;;;18.75;9.65;;;;;;;14.77;68.24;98724.84;4342096;81;20181;-89
2021/04/20 12:10:07;;;;;;;10.03;6.90;;;;;;;14.73;67.80;98724.70;4382302;80;21148;-88
2021/04/20 12:16:10;;;;;;;6.70;5.05;;;;;;;15.10;68.09;98724.11;4329636;80;21335;-90
2021/04/20 12:22:12;;;;;;;4.67;3.80;;;;;;;15.54;67.72;98722.62;4296746;81;21154;-88
2021/04/20 12:28:17;;;;;;;8.03;3.85;;;;;;;15.88;65.29;98719.01;4366320;80;21125;-88
2021/04/20 12:34:29;;;;;;;5.03;3.70;;;;;;;15.75;63.54;98719.38;4315878;82;21551;-88
2021/04/20 12:40:32;;;;;;;8.95;5.00;;;;;;;15.25;62.72;98713.09;4316824;82;21883;-89
2021/04/20 12:46:35;;;;;;;6.45;5.25;;;;;;;15.68;62.88;98696.04;4315636;82;21307;-89
2021/04/20 12:52:43;;;;;;;6.72;5.25;;;;;;;15.91;59.55;98693.33;4307663;82;21170;-89
2021/04/20 12:58:45;;;;;;;7.42;4.90;;;;;;;16.19;60.33;98680.46;4365624;81;21482;-88
2021/04/20 13:04:49;;;;;;;5.70;4.20;;;;;;;16.52;59.70;98669.87;4317445;82;21163;-89
2021/04/20 13:10:57;;;;;;;7.12;5.53;;;;;;;16.63;57.79;98675.36;4301979;81;21197;-88
2021/04/20 13:17:00;;;;;;;8.53;6.60;;;;;;;17.41;58.12;98669.69;4310491;82;21619;-89
2021/04/20 13:23:30;;;;;;;11.73;7.87;;;;;;;16.96;56.41;98677.11;4318036;82;21139;-88
2021/04/20 13:29:32;;;;;;;10.98;7.10;;;;;;;15.92;56.02;98687.98;4391152;79;21637;-88
2021/04/20 13:35:35;;;;;;;10.90;6.53;;;;;;;14.75;59.96;98688.65;4299522;81;21198;-88
2021/04/20 13:48:29;;;;;;;10.13;6.20;;;;;;;13.16;63.32;98684.69;4384241;81;21174;-89
2021/04/20 13:54:36;;;;;;;8.83;6.22;;;;;;;13.35;64.48;98683.63;4387656;81;21154;-87
2021/04/20 14:00:41;;;;;;;8.25;5.87;;;;;;;13.40;64.17;98686.55;4389457;80;21185;-88
2021/04/20 14:06:53;;;;;;;8.38;5.35;;;;;;;13.74;63.48;98684.19;4376553;81;21324;-89
2021/04/20 14:13:15;;;;;;;9.25;5.83;;;;;;;13.66;60.36;98681.87;4400892;80;21153;-89
2021/04/20 14:19:25;;;;;;;5.37;3.60;;;;;;;13.80;61.37;98690.03;4369666;80;21654;-89
2021/04/20 14:25:55;;;;;;;4.58;3.12;;;;;;;13.38;59.21;98681.45;4347209;81;21143;-89
2021/04/20 14:31:58;;;;;;;8.00;4.50;;;;;;;12.91;60.60;98670.22;4337735;81;21158;-90
2021/04/20 14:38:00;;;;;;;6.65;4.30;;;;;;;12.82;60.97;98669.28;4348602;81;21402;-89
2021/04/20 14:44:04;;;;;;;7.40;4.92;;;;;;;12.85;61.94;98657.50;4345336;80;21119;-89
2021/04/20 14:50:07;;;;;;;9.73;4.65;;;;;;;12.78;61.88;98654.00;4350507;81;21147;-89
2021/04/20 14:56:11;;;;;;;7.20;4.25;;;;;;;12.88;59.99;98652.58;4339161;81;21193;-90
2021/04/20 15:02:15;;;;;;;6.78;4.25;;;;;;;13.08;59.17;98650.95;4349637;80;21165;-89
2021/04/20 15:08:20;;;;;;;6.97;3.75;;;;;;;13.14;59.46;98652.10;4358057;81;21445;-89
2021/04/20 15:14:41;;;;;;;6.25;4.00;;;;;;;13.34;58.92;98658.67;4361428;81;21181;-89
2021/04/20 15:20:46;;;;;;;5.35;3.62;;;;;;;13.44;59.69;98658.42;4332446;82;21178;-90
2021/04/20 15:27:02;;;;;;;9.15;5.37;;;;;;;13.62;60.00;98656.37;4339611;82;21167;-89
2021/04/20 15:33:14;;;;;;;6.55;4.17;;;;;;;13.74;60.02;98656.68;4335327;82;21602;-90
2021/04/20 15:39:16;;;;;;;7.87;4.10;;;;;;;13.80;59.04;98654.27;4302774;83;21174;-89
2021/04/20 15:45:18;;;;;;;7.40;4.12;;;;;;;13.72;58.27;98650.79;4342998;82;21165;-89
2021/04/20 15:51:20;;;;;;;6.78;4.50;;;;;;;13.80;57.84;98658.39;4337890;82;21171;-89
2021/04/20 15:57:26;;;;;;;8.95;4.37;;;;;;;13.84;58.14;98655.04;4322586;82;21630;-89
2021/04/20 16:03:30;;;;;;;7.72;4.55;;;;;;;13.79;57.90;98654.09;4313811;82;21631;-89
2021/04/20 16:09:35;;;;;;;6.97;4.55;;;;;;;13.73;57.50;98654.33;4303937;82;21173;-89
2021/04/20 16:15:48;;;;;;;6.72;3.95;;;;;;;13.54;56.93;98653.47;4302809;82;21291;-89
2021/04/20 16:21:52;;;;;;;4.45;3.83;;;;;;;13.36;56.75;98647.30;4325953;82;21901;-89
2021/04/20 16:27:58;;;;;;;5.47;3.67;;;;;;;13.17;56.80;98643.05;4336623;82;21182;-88
2021/04/20 16:34:01;;;;;;;4.75;3.55;;;;;;;13.07;56.53;98644.48;4342645;81;21316;-89
2021/04/20 16:40:28;;;;;;;4.90;3.08;;;;;;;13.02;56.24;98644.31;4311508;82;21221;-88
2021/04/20 16:46:58;;;;;;;4.83;3.05;;;;;;;12.96;55.45;98642.34;4309480;82;21118;-89
2021/04/20 16:53:31;;;;;;;5.33;4.05;;;;;;;12.84;55.98;98638.67;4323104;81;21894;-89
2021/04/20 17:00:21;;;;;;;9.65;4.17;;;;;;;12.72;55.89;98638.50;4567832;76;23054;-89
2021/04/20 17:06:52;;;;;;;6.92;3.80;;;;;;;12.56;56.00;98637.57;4495068;78;21553;-88
2021/04/20 17:13:21;;;;;;;5.80;3.75;;;;;;;12.38;56.12;98638.79;4486064;79;21578;-88
2021/04/20 17:20:05;;;;;;;7.08;4.10;;;;;;;12.08;56.91;98639.22;4490936;79;21140;-89
2021/04/20 17:26:18;;;;;;;11.60;5.05;;;;;;;11.81;56.89;98640.78;4491299;79;21105;-88
2021/04/20 17:32:50;;;;;;;11.18;5.40;;;;;;;11.59;57.46;98643.87;4446220;79;21167;-88
2021/04/20 17:39:10;;;;;;;14.75;7.05;;;;;;;11.15;58.30;98646.88;4397582;78;28587;-91
2021/04/20 17:45:23;;;;;;;19.90;8.53;;;;;;;11.03;59.58;98647.24;4389335;79;21140;-91
2021/04/20 17:51:31;;;;;;;25.55;10.35;;;;;;;10.72;60.32;98653.37;4399539;79;21189;-89
2021/04/20 17:57:53;;;;;;;23.75;10.28;;;;;;;10.54;61.33;98654.64;4381418;79;21151;-88
2021/04/20 18:04:03;;;;;;;22.75;9.20;;;;;;;10.24;62.07;98666.97;4384776;79;21856;-87
2021/04/20 18:10:19;;;;;;;17.23;10.13;;;;;;;10.03;63.09;98672.23;4390436;79;21157;-88
2021/04/20 18:16:32;;;;;;;21.77;11.10;;;;;;;9.95;63.70;98680.96;4370773;79;21160;-88
2021/04/20 18:22:57;;;;;;;24.02;12.18;;;;;;;9.74;64.33;98686.22;4384191;81;21166;-88
2021/04/20 18:29:40;;;;;;;28.70;11.12;;;;;;;9.44;64.76;98682.22;4370225;79;21168;-88
2021/04/20 18:36:16;;;;;;;21.02;10.70;;;;;;;9.16;65.19;98693.44;4378055;79;21123;-88
2021/04/20 18:42:36;;;;;;;18.43;9.50;;;;;;;9.00;65.62;98701.83;4370873;80;21150;-87
2021/04/20 18:55:55;;;;;;;19.85;12.58;;;;;;;8.76;66.76;98709.11;4355284;80;21114;-89
2021/04/20 19:02:00;;;;;;;31.37;17.55;;;;;;;8.66;67.20;98712.47;4360153;80;21165;-87
2021/04/20 19:08:18;;;;;;;26.82;16.10;;;;;;;8.61;67.67;98718.83;4337234;80;21594;-88
2021/04/20 19:14:34;;;;;;;28.60;16.85;;;;;;;8.44;67.99;98717.40;4365406;80;21639;-88
2021/04/20 19:21:20;;;;;;;26.68;16.05;;;;;;;8.45;68.90;98717.62;4355839;80;21157;-88
2021/04/20 19:27:31;;;;;;;24.75;14.18;;;;;;;8.51;69.56;98720.81;4344880;81;21571;-88
2021/04/20 19:33:46;;;;;;;28.70;15.98;;;;;;;8.50;70.11;98728.23;4347000;81;21705;-87
2021/04/20 19:40:10;;;;;;;35.73;19.23;;;;;;;8.48;70.40;98727.00;4377004;81;21165;-87
2021/04/20 19:46:15;;;;;;;29.85;17.75;;;;;;;8.31;70.60;98724.80;4389790;81;21169;-88
2021/04/20 19:52:39;;;;;;;61.63;31.17;;;;;;;8.25;71.31;98737.17;4408352;79;21162;-88
2021/04/20 19:58:43;;;;;;;76.12;38.83;;;;;;;7.99;70.99;98738.67;4374512;79;21168;-87
2021/04/20 20:04:58;;;;;;;67.92;35.83;;;;;;;7.73;71.30;98727.71;4395622;79;21184;-88
2021/04/20 20:11:06;;;;;;;72.12;34.43;;;;;;;7.67;72.00;98725.05;4397628;79;21156;-86
2021/04/20 20:17:13;;;;;;;52.55;30.43;;;;;;;7.59;72.08;98734.83;4400384;79;21198;-86
2021/04/20 20:23:17;;;;;;;62.25;34.03;;;;;;;7.42;72.27;98732.56;4406928;79;21153;-86
2021/04/20 20:29:22;;;;;;;61.00;33.00;;;;;;;7.39;72.75;98729.20;4400130;79;21192;-86
2021/04/20 20:35:25;;;;;;;62.33;33.78;;;;;;;7.35;73.31;98735.14;4391590;79;21168;-85
2021/04/20 20:41:42;;;;;;;56.25;30.85;;;;;;;7.26;73.55;98725.84;4360450;80;21205;-85
2021/04/20 20:47:48;;;;;;;55.23;29.52;;;;;;;7.17;73.63;98729.93;4361724;80;21197;-86
2021/04/20 20:53:50;;;;;;;58.57;32.00;;;;;;;6.86;74.13;98709.66;4369196;80;21338;-85
2021/04/20 20:59:53;;;;;;;56.77;31.75;;;;;;;6.86;74.13;98709.66;4361475;80;21596;-85
2021/04/20 21:05:56;;;;;;;65.92;33.88;;;;;;;6.93;74.62;98735.64;4359494;80;21185;-86
2021/04/20 21:12:03;;;;;;;79.80;42.95;;;;;;;6.89;74.97;98736.15;4357378;80;22000;-85
2021/04/20 21:18:33;;;;;;;73.85;38.85;;;;;;;6.86;75.00;98732.78;4366625;80;21609;-85
2021/04/20 21:24:43;;;;;;;76.07;40.43;;;;;;;6.85;75.22;98735.27;4369645;80;21521;-86
2021/04/20 21:30:53;;;;;;;88.07;45.52;;;;;;;6.92;75.60;98739.52;4372571;80;21173;-86
2021/04/20 21:36:56;;;;;;;73.22;37.08;;;;;;;6.81;75.31;98739.86;4363420;80;22324;-85
2021/04/20 21:43:02;;;;;;;69.62;36.70;;;;;;;6.70;75.78;98742.91;4354177;80;21174;-86
2021/04/20 21:49:10;;;;;;;65.37;35.93;;;;;;;6.67;76.00;98743.63;4356581;80;21173;-86
2021/04/20 21:55:19;;;;;;;58.63;31.05;;;;;;;6.74;75.95;98745.92;4361304;80;21574;-85
2021/04/20 22:01:28;;;;;;;54.75;29.82;;;;;;;6.73;76.96;98749.80;4357843;80;21175;-86
2021/04/20 22:07:33;;;;;;;68.62;37.15;;;;;;;6.85;77.26;98748.87;4366474;80;21165;-86
2021/04/20 22:13:40;;;;;;;77.95;42.17;;;;;;;6.98;77.66;98767.45;4357512;80;21181;-85
2021/04/20 22:19:53;;;;;;;65.83;35.17;;;;;;;7.01;77.47;98768.66;4367933;80;21169;-86
2021/04/20 22:25:58;;;;;;;69.27;37.95;;;;;;;6.86;77.42;98763.48;4364631;80;21213;-85
2021/04/20 22:32:02;;;;;;;68.25;36.08;;;;;;;6.72;78.48;98766.48;4367910;80;21705;-85
2021/04/20 22:38:24;;;;;;;58.63;31.97;;;;;;;6.73;78.21;98759.88;4350405;80;21762;-85
2021/04/20 22:44:40;;;;;;;64.58;34.55;;;;;;;6.70;78.24;98761.39;4332673;80;21608;-86
2021/04/20 22:50:44;;;;;;;51.18;27.40;;;;;;;6.89;78.41;98762.77;4330721;80;21132;-85
2021/04/20 22:57:18;;;;;;;54.90;27.82;;;;;;;7.04;79.58;98766.02;4333835;80;21111;-85
2021/04/20 23:03:25;;;;;;;55.95;28.62;;;;;;;7.24;78.54;98761.36;4334344;80;21340;-86
2021/04/20 23:09:28;;;;;;;51.92;26.85;;;;;;;7.31;78.46;98765.61;4331010;80;21800;-85
2021/04/20 23:15:32;;;;;;;47.23;25.70;;;;;;;7.30;77.85;98768.89;4337504;80;21221;-85
2021/04/20 23:21:36;;;;;;;45.38;24.60;;;;;;;7.12;78.18;98759.59;4345215;80;21170;-85
2021/04/20 23:28:03;;;;;;;44.27;24.43;;;;;;;7.06;78.91;98760.22;4335733;80;21374;-86
2021/04/20 23:34:06;;;;;;;47.10;25.82;;;;;;;7.05;78.17;98755.34;4251333;81;21162;-86
2021/04/20 23:40:11;;;;;;;40.43;24.10;;;;;;;7.16;78.84;98753.63;4276155;81;21184;-85
2021/04/20 23:46:13;;;;;;;48.13;23.55;;;;;;;7.24;78.55;98760.80;4285928;81;21590;-85
2021/04/20 23:52:16;;;;;;;40.73;22.52;;;;;;;7.19;78.35;98757.56;4276169;81;21203;-86
2021/04/20 23:58:20;;;;;;;38.13;22.62;;;;;;;7.19;78.33;98760.28;4275521;81;21170;-86
